Time;durP1;ratioP1;P1;durP2;ratioP2;P2;SDS_P1;SDS_P2;PMS_P1;PMS_P2;Temp;Humidity;BMP_temperature;BMP_pressure;BME280_temperature;BME280_humidity;BME280_pressure;Samples;Min_cycle;Max_cycle;Signal;HPM_P1;HPM_P2
2023/10/30 00:00:26;;;;;;;9.97;4.30;;;;;;;12.10;83.13;95048.25;5071091;28;20194;-44
2023/10/30 00:02:53;;;;;;;7.10;4.07;;;;;;;12.04;83.10;95041.09;5070730;28;20271;-43
2023/10/30 00:05:20;;;;;;;8.10;4.53;;;;;;;12.06;83.00;95052.03;5070843;28;20216;-42
2023/10/30 00:07:48;;;;;;;7.20;4.07;;;;;;;11.98;83.66;95039.09;5070746;28;20293;-43
2023/10/30 00:10:15;;;;;;;8.63;3.87;;;;;;;11.98;83.91;95047.59;5070899;28;20658;-43
2023/10/30 00:12:41;;;;;;;6.40;4.03;;;;;;;11.98;83.69;95046.78;5070643;28;20226;-45
2023/10/30 00:15:09;;;;;;;8.20;4.43;;;;;;;11.97;83.48;95045.97;5070586;28;20267;-43
2023/10/30 00:17:35;;;;;;;7.40;4.33;;;;;;;11.64;83.80;94995.13;5070675;28;20239;-43
2023/10/30 00:20:02;;;;;;;7.23;4.03;;;;;;;11.96;83.75;95046.94;5070350;28;20214;-44
2023/10/30 00:22:29;;;;;;;5.30;3.37;;;;;;;12.02;83.71;95045.56;5070430;28;20193;-43
2023/10/30 00:24:57;;;;;;;4.23;3.50;;;;;;;12.03;83.59;95049.72;5070294;28;20261;-44
2023/10/30 00:27:24;;;;;;;6.17;3.33;;;;;;;11.99;83.60;95046.63;5070040;28;20313;-44
2023/10/30 00:29:51;;;;;;;5.03;3.40;;;;;;;11.53;83.65;94971.28;5070458;28;20193;-44
2023/10/30 00:32:17;;;;;;;5.60;3.67;;;;;;;11.96;83.86;95040.97;5070637;28;20211;-44
2023/10/30 00:34:44;;;;;;;6.43;3.10;;;;;;;11.98;83.63;95044.22;5070483;28;20182;-44
2023/10/30 00:37:12;;;;;;;4.90;3.10;;;;;;;11.96;83.40;95039.25;5070154;28;20213;-44
2023/10/30 00:39:39;;;;;;;9.70;3.40;;;;;;;11.96;82.92;95043.53;5070341;28;20288;-44
2023/10/30 00:42:07;;;;;;;3.70;2.80;;;;;;;11.92;83.34;95034.53;5070351;28;20190;-45
2023/10/30 00:44:34;;;;;;;4.80;3.00;;;;;;;11.92;83.36;95042.22;5070692;28;20190;-45
2023/10/30 00:47:01;;;;;;;8.63;3.67;;;;;;;11.78;83.41;95020.31;5072701;28;20662;-43
2023/10/30 00:49:27;;;;;;;4.50;3.13;;;;;;;11.89;83.55;95039.91;5070940;28;20213;-44
2023/10/30 00:51:54;;;;;;;4.57;2.90;;;;;;;11.86;83.30;95048.69;5069720;28;20229;-43
2023/10/30 00:54:21;;;;;;;5.37;3.03;;;;;;;11.83;83.47;95037.88;5069970;28;20274;-44
2023/10/30 00:56:48;;;;;;;7.17;3.40;;;;;;;11.32;83.62;94967.28;5069904;28;20190;-43
2023/10/30 00:59:16;;;;;;;5.83;3.33;;;;;;;11.72;83.97;95029.38;5069985;28;20626;-44
2023/10/30 01:01:43;;;;;;;6.80;3.70;;;;;;;11.75;84.14;95044.50;5069385;28;20198;-44
2023/10/30 01:04:10;;;;;;;6.50;3.17;;;;;;;11.73;84.29;95045.56;5069783;28;20213;-43
2023/10/30 01:06:36;;;;;;;6.60;3.20;;;;;;;11.67;84.56;95034.09;5070005;28;20194;-43
2023/10/30 01:09:03;;;;;;;7.07;3.40;;;;;;;11.66;84.99;95045.31;5069566;28;20193;-43
2023/10/30 01:11:30;;;;;;;4.60;3.10;;;;;;;11.63;85.00;95043.00;5069942;28;20205;-42
2023/10/30 01:13:57;;;;;;;7.20;3.00;;;;;;;11.62;85.13;95035.47;5069591;28;20197;-44
2023/10/30 01:16:25;;;;;;;5.37;3.03;;;;;;;11.59;85.11;95046.78;5069570;28;20799;-44
2023/10/30 01:18:52;;;;;;;9.03;3.13;;;;;;;11.54;85.34;95042.06;5069550;28;20190;-45
2023/10/30 01:21:20;;;;;;;3.70;2.93;;;;;;;11.52;85.59;95035.44;5069511;28;20186;-43
2023/10/30 01:23:46;;;;;;;3.83;3.17;;;;;;;11.49;85.61;95041.66;5070189;28;20182;-43
2023/10/30 01:26:14;;;;;;;6.67;3.47;;;;;;;11.46;85.74;95036.81;5071419;28;20198;-43
2023/10/30 01:28:41;;;;;;;5.33;3.17;;;;;;;11.40;85.41;95021.16;5070780;28;20230;-42
2023/10/30 01:31:08;;;;;;;5.63;3.20;;;;;;;11.46;85.62;95036.81;5071328;28;20273;-45
2023/10/30 01:33:36;;;;;;;6.17;2.97;;;;;;;11.44;85.97;95035.31;5069623;28;20233;-44
2023/10/30 01:36:06;;;;;;;3.80;3.17;;;;;;;11.43;86.35;95033.69;5069947;28;20198;-43
2023/10/30 01:38:33;;;;;;;6.50;3.03;;;;;;;10.84;86.05;94945.84;5069012;28;20240;-43
2023/10/30 01:40:59;;;;;;;6.93;2.93;;;;;;;11.42;86.01;95034.66;5068552;28;20193;-44
2023/10/30 01:43:30;;;;;;;6.13;3.67;;;;;;;11.32;86.63;95026.16;5069156;28;20552;-44
2023/10/30 01:45:57;;;;;;;6.50;3.20;;;;;;;11.35;86.46;95033.56;5069290;28;20240;-48
2023/10/30 01:48:24;;;;;;;7.40;3.27;;;;;;;11.34;86.84;95040.44;5069207;28;20266;-42
2023/10/30 01:50:52;;;;;;;4.50;3.33;;;;;;;11.34;86.92;95034.50;5068855;28;20197;-45
2023/10/30 01:53:21;;;;;;;6.60;3.60;;;;;;;11.26;87.09;95024.91;5069372;28;20573;-44
2023/10/30 01:55:49;;;;;;;4.13;2.97;;;;;;;11.23;87.15;95031.13;5069169;28;20221;-44
2023/10/30 01:58:17;;;;;;;6.40;3.47;;;;;;;11.22;87.53;95037.19;5069233;28;20187;-44
2023/10/30 02:00:45;;;;;;;4.87;2.90;;;;;;;11.19;87.44;95039.22;5069369;28;20182;-44
2023/10/30 02:03:11;;;;;;;5.30;3.00;;;;;;;11.13;87.68;95034.59;5069089;28;20202;-46
2023/10/30 02:05:38;;;;;;;6.33;3.57;;;;;;;11.18;87.67;95040.97;5069139;28;20197;-42
2023/10/30 02:08:07;;;;;;;6.23;3.37;;;;;;;11.11;87.91;95033.94;5069513;28;20412;-44
2023/10/30 02:10:33;;;;;;;8.60;3.47;;;;;;;11.14;87.94;95052.41;5069350;28;20186;-44
2023/10/30 02:13:00;;;;;;;6.50;3.20;;;;;;;11.07;88.28;95053.88;5069294;28;20592;-44
2023/10/30 02:15:27;;;;;;;6.23;3.20;;;;;;;11.04;88.16;95047.25;5068749;28;20182;-44
2023/10/30 02:17:54;;;;;;;5.23;3.07;;;;;;;11.04;88.30;95051.56;5069532;28;20190;-43
2023/10/30 02:20:21;;;;;;;3.23;2.93;;;;;;;11.00;88.50;95038.22;5069199;28;20190;-43
2023/10/30 02:22:48;;;;;;;7.20;3.20;;;;;;;10.96;88.66;95036.06;5069635;28;20331;-42
2023/10/30 02:25:19;;;;;;;4.90;2.93;;;;;;;10.85;88.46;95026.75;5071198;28;20206;-43
2023/10/30 02:27:45;;;;;;;6.17;3.37;;;;;;;10.97;88.68;95051.28;5077236;28;20218;-44
2023/10/30 02:30:13;;;;;;;6.93;3.20;;;;;;;10.97;89.03;95051.28;5078840;28;20223;-44
2023/10/30 02:32:42;;;;;;;5.23;3.50;;;;;;;10.95;89.13;95048.03;5069703;28;20226;-43
2023/10/30 02:35:11;;;;;;;7.57;4.47;;;;;;;10.93;89.23;95044.81;5069490;28;20213;-44
2023/10/30 02:37:38;;;;;;;5.77;3.30;;;;;;;10.91;89.21;95046.69;5068907;28;20230;-43
2023/10/30 02:40:06;;;;;;;5.70;3.50;;;;;;;10.90;89.36;95045.06;5068911;28;20252;-43
2023/10/30 02:42:34;;;;;;;3.90;3.23;;;;;;;10.89;89.43;95040.09;5068800;28;20198;-43
2023/10/30 02:45:03;;;;;;;10.33;3.77;;;;;;;10.88;89.52;95051.25;5068729;28;20281;-43
2023/10/30 02:47:30;;;;;;;5.60;3.80;;;;;;;10.83;89.60;95043.16;5068329;28;20281;-42
2023/10/30 02:49:57;;;;;;;4.47;3.33;;;;;;;10.82;89.81;95039.81;5068832;28;20221;-43
2023/10/30 02:52:24;;;;;;;7.77;3.57;;;;;;;10.75;89.84;95029.28;5071753;28;20210;-44
2023/10/30 02:54:51;;;;;;;5.60;3.43;;;;;;;10.71;90.41;95035.59;5072401;28;20194;-43
2023/10/30 02:57:18;;;;;;;5.43;3.50;;;;;;;10.74;90.45;95040.44;5071957;28;20666;-44
2023/10/30 02:59:46;;;;;;;3.80;2.87;;;;;;;10.74;90.48;95044.75;5072484;28;20194;-43
2023/10/30 03:02:13;;;;;;;4.60;3.20;;;;;;;10.74;90.55;95044.75;5071929;28;20194;-44
2023/10/30 03:04:39;;;;;;;8.67;3.60;;;;;;;10.73;90.49;95040.59;5072573;28;20257;-44
2023/10/30 03:07:06;;;;;;;6.20;3.33;;;;;;;10.68;90.50;95029.94;5072505;28;20190;-45
2023/10/30 03:09:36;;;;;;;4.77;3.90;;;;;;;10.45;90.82;95004.56;5072172;28;20209;-44
2023/10/30 03:12:03;;;;;;;5.13;3.33;;;;;;;10.68;90.64;95040.97;5072152;28;20229;-44
2023/10/30 03:14:30;;;;;;;5.77;3.53;;;;;;;10.68;90.92;95040.16;5072021;28;20198;-45
2023/10/30 03:16:58;;;;;;;3.50;3.20;;;;;;;10.69;90.85;95045.16;5072068;28;20194;-43
2023/10/30 03:19:25;;;;;;;3.77;2.83;;;;;;;10.69;90.77;95052.81;5071900;28;20198;-44
2023/10/30 03:21:51;;;;;;;6.87;3.43;;;;;;;10.56;91.09;95029.22;5072375;28;20186;-43
2023/10/30 03:24:18;;;;;;;7.50;3.67;;;;;;;10.65;91.26;95045.53;5073095;28;20193;-45
2023/10/30 03:26:45;;;;;;;6.00;3.13;;;;;;;10.65;91.10;95048.91;5073008;28;20201;-44
2023/10/30 03:29:12;;;;;;;4.00;3.33;;;;;;;10.70;91.34;95053.63;5071926;28;20548;-43
2023/10/30 03:31:38;;;;;;;6.03;3.00;;;;;;;10.67;91.24;95061.56;5071882;28;20209;-43
2023/10/30 03:34:06;;;;;;;5.57;3.33;;;;;;;10.65;91.48;95061.69;5071420;28;20630;-43
2023/10/30 03:36:33;;;;;;;7.87;3.47;;;;;;;10.63;91.69;95065.31;5071579;28;20190;-44
2023/10/30 03:39:00;;;;;;;4.93;3.27;;;;;;;10.61;91.65;95062.06;5071548;28;20198;-44
2023/10/30 03:41:27;;;;;;;5.07;3.07;;;;;;;10.61;91.77;95064.63;5071632;28;20186;-43
2023/10/30 03:43:54;;;;;;;5.43;3.40;;;;;;;10.59;91.98;95063.97;5071432;28;20186;-44
2023/10/30 03:46:21;;;;;;;6.70;3.47;;;;;;;10.46;91.82;95056.50;5071244;28;20198;-43
2023/10/30 03:48:47;;;;;;;4.47;3.33;;;;;;;10.55;91.82;95066.78;5071965;28;20668;-43
2023/10/30 03:51:15;;;;;;;5.90;2.90;;;;;;;10.57;91.78;95064.06;5071818;28;20228;-43
2023/10/30 03:53:42;;;;;;;9.13;3.23;;;;;;;10.55;91.98;95065.97;5071606;28;20587;-44
2023/10/30 03:56:09;;;;;;;3.93;3.07;;;;;;;10.57;91.94;95065.81;5071342;28;20198;-44
2023/10/30 03:58:36;;;;;;;6.60;3.27;;;;;;;10.59;91.86;95062.22;5071327;28;20186;-45
2023/10/30 04:01:07;;;;;;;10.23;3.40;;;;;;;10.52;91.96;95061.91;5070901;28;21209;-44
2023/10/30 04:03:33;;;;;;;4.37;3.17;;;;;;;10.55;91.71;95058.28;5070498;28;20191;-44
2023/10/30 04:06:02;;;;;;;5.27;3.03;;;;;;;10.47;91.83;95051.25;5071046;28;20193;-43
2023/10/30 04:08:30;;;;;;;5.97;3.43;;;;;;;10.49;91.92;95066.47;5071717;28;20182;-45
2023/10/30 04:10:57;;;;;;;5.97;3.07;;;;;;;10.49;91.69;95064.72;5071115;28;20193;-44
2023/10/30 04:13:24;;;;;;;7.27;3.10;;;;;;;10.49;91.89;95056.22;5071379;28;20893;-44
2023/10/30 04:15:51;;;;;;;3.77;3.03;;;;;;;10.50;91.56;95053.56;5070553;28;20198;-43
2023/10/30 04:18:18;;;;;;;6.67;3.00;;;;;;;10.52;91.73;95050.88;5070806;28;20235;-42
2023/10/30 04:20:45;;;;;;;7.13;3.27;;;;;;;10.51;91.50;95056.94;5070928;28;20185;-43
2023/10/30 04:23:12;;;;;;;7.20;3.00;;;;;;;10.48;91.46;95052.06;5070539;28;20194;-42
2023/10/30 04:25:40;;;;;;;4.27;3.17;;;;;;;10.44;91.43;95051.50;5070628;28;20194;-43
2023/10/30 04:28:07;;;;;;;6.90;3.57;;;;;;;10.45;91.68;95054.91;5070175;28;20230;-44
2023/10/30 04:30:35;;;;;;;9.73;3.03;;;;;;;10.46;91.30;95059.06;5070370;28;20685;-44
2023/10/30 04:33:02;;;;;;;6.70;3.33;;;;;;;10.45;91.49;95057.44;5070377;28;20580;-44
2023/10/30 04:35:29;;;;;;;4.30;2.80;;;;;;;10.38;91.33;95053.78;5070768;28;20522;-44
2023/10/30 04:37:55;;;;;;;4.67;2.67;;;;;;;10.40;91.21;95057.81;5070220;28;20191;-42
2023/10/30 04:40:23;;;;;;;5.30;2.70;;;;;;;10.38;91.23;95054.56;5070204;28;20192;-44
2023/10/30 04:42:51;;;;;;;4.40;2.97;;;;;;;10.19;91.40;95029.72;5070167;28;20218;-44
2023/10/30 04:45:18;;;;;;;5.03;3.20;;;;;;;10.36;91.23;95047.97;5070406;28;20205;-45
2023/10/30 04:47:45;;;;;;;6.50;2.93;;;;;;;10.41;90.96;95056.09;5070057;28;20190;-44
2023/10/30 04:50:12;;;;;;;4.00;2.70;;;;;;;10.38;90.85;95059.69;5069945;28;20594;-43
2023/10/30 04:52:39;;;;;;;4.53;2.97;;;;;;;10.37;90.78;95062.38;5069722;28;20209;-44
2023/10/30 04:55:06;;;;;;;6.17;3.27;;;;;;;10.33;90.91;95059.28;5070309;28;20186;-44
2023/10/30 04:57:33;;;;;;;8.93;3.33;;;;;;;10.27;91.04;95065.69;5070225;28;20193;-43
2023/10/30 05:00:04;;;;;;;5.47;4.07;;;;;;;10.28;91.17;95069.06;5070056;28;20198;-43
2023/10/30 05:02:31;;;;;;;5.07;3.10;;;;;;;10.20;91.27;95061.19;5070030;28;20185;-44
2023/10/30 05:04:57;;;;;;;5.77;4.00;;;;;;;10.25;91.38;95062.44;5069944;28;20206;-44
2023/10/30 05:07:24;;;;;;;8.10;3.37;;;;;;;10.25;91.46;95071.88;5069668;28;20631;-43
2023/10/30 05:09:51;;;;;;;5.60;3.10;;;;;;;10.24;91.63;95067.66;5070220;28;20186;-44
2023/10/30 05:12:18;;;;;;;3.70;3.27;;;;;;;10.23;92.03;95076.25;5069513;28;20561;-44
2023/10/30 05:14:44;;;;;;;7.20;3.60;;;;;;;10.23;91.55;95074.53;5069148;28;20229;-42
2023/10/30 05:17:13;;;;;;;6.73;3.40;;;;;;;10.24;91.95;95073.63;5069616;28;20182;-44
2023/10/30 05:19:39;;;;;;;6.67;3.67;;;;;;;10.26;91.71;95071.72;5069608;28;20191;-44
2023/10/30 05:22:06;;;;;;;27.67;4.00;;;;;;;10.32;91.73;95083.22;5069704;28;20510;-43
2023/10/30 05:24:33;;;;;;;6.73;3.80;;;;;;;10.36;91.56;95089.66;5069059;28;20186;-44
2023/10/30 05:27:00;;;;;;;8.20;3.60;;;;;;;10.39;91.66;95088.63;5069071;28;20283;-44
2023/10/30 05:29:27;;;;;;;11.03;3.50;;;;;;;10.45;91.51;95095.81;5069444;28;20190;-44
2023/10/30 05:31:53;;;;;;;10.07;4.03;;;;;;;10.48;91.25;95096.34;5069219;28;20183;-45
2023/10/30 05:34:21;;;;;;;10.40;4.50;;;;;;;10.48;91.07;95086.09;5069277;28;20253;-44
2023/10/30 05:36:48;;;;;;;6.93;3.70;;;;;;;10.55;90.97;95101.75;5069108;28;20270;-44
2023/10/30 05:39:15;;;;;;;9.13;3.80;;;;;;;10.57;90.80;95101.63;5071240;28;20190;-45
2023/10/30 05:41:42;;;;;;;7.13;4.33;;;;;;;10.64;90.43;95101.00;5072841;28;20236;-44
2023/10/30 05:44:09;;;;;;;9.03;5.00;;;;;;;10.69;90.42;95111.66;5074357;28;20190;-43
2023/10/30 05:46:36;;;;;;;5.77;4.20;;;;;;;10.74;90.46;95118.94;5069530;28;20561;-44
2023/10/30 05:49:03;;;;;;;6.13;3.93;;;;;;;10.80;90.09;95113.31;5069449;28;20217;-43
2023/10/30 05:51:31;;;;;;;9.20;5.13;;;;;;;10.89;89.78;95110.00;5068794;28;20263;-44
2023/10/30 05:53:58;;;;;;;8.00;5.00;;;;;;;10.96;89.38;95113.63;5069237;28;20210;-44
2023/10/30 05:56:25;;;;;;;8.90;4.70;;;;;;;11.03;89.33;95116.50;5069087;28;20183;-48
2023/10/30 05:58:52;;;;;;;13.67;4.77;;;;;;;11.11;88.99;95121.78;5069269;28;20206;-45
2023/10/30 06:01:17;;;;;;;7.20;5.00;;;;;;;11.17;88.83;95123.00;5069777;28;20194;-45
2023/10/30 06:03:44;;;;;;;13.87;5.07;;;;;;;11.22;88.47;95119.09;5071664;28;20186;-43
2023/10/30 06:06:11;;;;;;;10.53;5.40;;;;;;;11.36;88.10;95123.06;5069541;28;20240;-44
2023/10/30 06:08:39;;;;;;;10.97;5.47;;;;;;;11.47;87.13;95124.69;5069488;28;20194;-44
2023/10/30 06:11:06;;;;;;;12.03;5.17;;;;;;;11.68;86.59;95124.56;5071114;28;20183;-44
2023/10/30 06:13:32;;;;;;;9.47;5.00;;;;;;;11.91;85.53;95127.72;5069352;28;20229;-44
2023/10/30 06:15:59;;;;;;;7.50;5.00;;;;;;;12.15;84.42;95127.31;5069496;28;20197;-43
2023/10/30 06:18:26;;;;;;;11.83;5.40;;;;;;;12.35;83.45;95133.19;5069380;28;20197;-45
2023/10/30 06:20:53;;;;;;;9.63;5.37;;;;;;;12.60;82.31;95131.81;5069669;28;20552;-44
2023/10/30 06:23:20;;;;;;;10.90;6.13;;;;;;;12.79;81.28;95139.47;5068523;28;20190;-43
2023/10/30 06:25:48;;;;;;;13.60;6.30;;;;;;;12.96;80.04;95132.78;5069580;28;20194;-45
2023/10/30 06:28:16;;;;;;;10.13;5.77;;;;;;;13.23;79.08;95135.38;5072408;28;20234;-45
2023/10/30 06:30:42;;;;;;;9.63;5.73;;;;;;;13.53;77.90;95146.31;5072977;28;20182;-45
2023/10/30 06:33:09;;;;;;;10.83;5.67;;;;;;;13.81;76.74;95147.06;5072540;28;20190;-44
2023/10/30 06:35:36;;;;;;;9.63;5.33;;;;;;;14.16;75.80;95150.59;5072803;28;20194;-44
2023/10/30 06:38:03;;;;;;;10.63;6.00;;;;;;;14.47;74.44;95138.94;5072882;28;20192;-44
2023/10/30 06:40:30;;;;;;;11.97;6.37;;;;;;;14.79;73.67;95147.88;5072677;28;20220;-44
2023/10/30 06:42:58;;;;;;;8.20;6.10;;;;;;;15.14;71.09;95143.53;5072887;28;20194;-45
2023/10/30 06:45:25;;;;;;;11.17;6.70;;;;;;;15.38;70.22;95150.56;5072443;28;20190;-45
2023/10/30 06:47:52;;;;;;;8.50;4.90;;;;;;;15.65;69.24;95146.97;5072906;28;20195;-45
2023/10/30 06:50:19;;;;;;;12.80;5.20;;;;;;;15.87;68.31;95141.19;5072553;28;20182;-45
2023/10/30 06:52:46;;;;;;;9.87;4.90;;;;;;;16.13;67.13;95138.47;5072692;28;20187;-45
2023/10/30 06:55:13;;;;;;;6.90;5.27;;;;;;;16.35;66.46;95129.28;5072553;28;20222;-45
2023/10/30 06:57:40;;;;;;;8.07;5.33;;;;;;;16.47;65.38;95122.03;5073390;28;20217;-45
2023/10/30 07:00:09;;;;;;;15.00;5.30;;;;;;;16.83;64.93;95137.97;5083911;28;20198;-44
2023/10/30 07:02:36;;;;;;;16.07;6.17;;;;;;;17.12;64.05;95134.81;5083497;28;20629;-45
2023/10/30 07:05:03;;;;;;;10.10;5.57;;;;;;;17.43;63.16;95131.47;5071906;28;20839;-45
2023/10/30 07:07:29;;;;;;;9.90;5.37;;;;;;;17.59;61.54;95139.16;5072176;28;20195;-46
2023/10/30 07:09:57;;;;;;;14.17;5.77;;;;;;;17.68;61.05;95145.88;5071930;28;20182;-45
2023/10/30 07:12:24;;;;;;;9.33;6.00;;;;;;;17.85;61.00;95138.06;5071984;28;20291;-44
2023/10/30 07:14:51;;;;;;;9.57;5.67;;;;;;;18.07;60.13;95136.47;5071885;28;20225;-46
2023/10/30 07:17:19;;;;;;;10.30;6.13;;;;;;;18.26;59.32;95149.75;5072197;28;20186;-44
2023/10/30 07:19:48;;;;;;;12.53;5.67;;;;;;;18.44;58.51;95144.25;5072109;28;20195;-45
2023/10/30 07:22:15;;;;;;;14.40;6.23;;;;;;;18.43;58.76;95137.44;5071836;28;20264;-44
2023/10/30 07:24:42;;;;;;;15.30;7.00;;;;;;;18.52;58.16;95151.97;5071702;28;20187;-46
2023/10/30 07:27:08;;;;;;;19.40;5.90;;;;;;;18.42;57.63;95142.81;5071519;28;20238;-45
2023/10/30 07:29:36;;;;;;;11.47;6.23;;;;;;;18.50;57.57;95138.38;5071908;28;20198;-44
2023/10/30 07:32:02;;;;;;;10.77;6.97;;;;;;;18.51;57.26;95142.56;5071927;28;20210;-46
2023/10/30 07:34:30;;;;;;;14.87;6.30;;;;;;;18.52;57.38;95148.53;5071408;28;20669;-45
2023/10/30 07:36:58;;;;;;;13.70;5.60;;;;;;;18.49;57.68;95136.78;5070873;28;20197;-45
2023/10/30 07:39:25;;;;;;;12.67;5.30;;;;;;;18.53;57.56;95137.22;5070994;28;20598;-44
2023/10/30 07:41:52;;;;;;;10.10;4.77;;;;;;;18.62;56.59;95145.72;5071554;28;20187;-44
2023/10/30 07:44:19;;;;;;;15.60;7.63;;;;;;;18.58;56.33;95141.88;5071161;28;20634;-44
2023/10/30 07:46:45;;;;;;;13.67;8.50;;;;;;;18.69;56.27;95138.84;5071204;28;20672;-43
2023/10/30 07:49:12;;;;;;;15.93;8.73;;;;;;;18.59;56.12;95133.91;5071625;28;20316;-46
2023/10/30 07:51:40;;;;;;;21.43;9.43;;;;;;;18.39;56.61;95133.59;5070929;28;20194;-44
2023/10/30 07:54:07;;;;;;;18.00;8.70;;;;;;;18.30;57.44;95138.03;5071044;28;20210;-44
2023/10/30 07:56:34;;;;;;;10.43;7.80;;;;;;;18.23;57.46;95144.13;5071399;28;20315;-43
2023/10/30 07:59:01;;;;;;;14.00;8.27;;;;;;;18.11;57.42;95142.91;5071124;28;20198;-45
2023/10/30 08:01:27;;;;;;;14.93;8.23;;;;;;;18.04;57.80;95135.81;5071398;28;20255;-46
2023/10/30 08:03:54;;;;;;;13.50;8.83;;;;;;;18.00;58.19;95136.31;5070923;28;20186;-46
2023/10/30 08:06:21;;;;;;;18.27;8.80;;;;;;;17.75;58.62;95108.03;5071020;28;20185;-43
2023/10/30 08:08:49;;;;;;;19.57;8.57;;;;;;;17.93;58.88;95132.84;5070844;28;20642;-44
2023/10/30 08:11:16;;;;;;;13.00;8.47;;;;;;;17.92;58.26;95119.09;5071172;28;20303;-45
2023/10/30 08:13:42;;;;;;;16.37;8.27;;;;;;;17.82;58.57;95128.03;5070735;28;20240;-45
2023/10/30 08:16:10;;;;;;;15.77;8.00;;;;;;;17.69;58.75;95110.47;5071044;28;20269;-45
2023/10/30 08:18:37;;;;;;;14.87;8.50;;;;;;;17.74;58.78;95123.72;5070835;28;20182;-45
2023/10/30 08:21:04;;;;;;;11.07;7.67;;;;;;;17.69;59.08;95128.56;5071000;28;20568;-46
2023/10/30 08:23:32;;;;;;;16.47;7.37;;;;;;;17.67;59.09;95118.41;5070373;28;20626;-46
2023/10/30 08:26:00;;;;;;;18.20;8.47;;;;;;;17.68;59.13;95122.59;5070938;28;20182;-45
2023/10/30 08:28:27;;;;;;;19.27;7.67;;;;;;;17.69;59.19;95119.03;5070709;28;20222;-44
2023/10/30 08:30:53;;;;;;;13.57;7.50;;;;;;;17.71;59.33;95118.88;5070735;28;20190;-45
2023/10/30 08:33:20;;;;;;;15.57;6.70;;;;;;;17.71;59.49;95126.63;5070811;28;20212;-47
2023/10/30 08:35:47;;;;;;;15.33;6.70;;;;;;;17.70;59.42;95119.84;5070193;28;20229;-45
2023/10/30 08:38:14;;;;;;;13.53;7.20;;;;;;;17.78;59.22;95125.78;5070793;28;20198;-45
2023/10/30 08:40:41;;;;;;;13.03;7.03;;;;;;;17.86;58.92;95119.78;5070262;28;20653;-44
2023/10/30 08:43:11;;;;;;;15.90;8.37;;;;;;;17.88;58.77;95123.00;5070386;28;20689;-44
2023/10/30 08:45:38;;;;;;;12.73;6.43;;;;;;;17.88;59.21;95128.19;5070124;28;20641;-44
2023/10/30 08:48:06;;;;;;;17.17;7.23;;;;;;;17.92;59.23;95119.09;5070332;28;20240;-43
2023/10/30 08:50:32;;;;;;;13.33;6.73;;;;;;;17.98;59.10;95122.78;5069834;28;20562;-45
2023/10/30 08:52:59;;;;;;;11.13;6.27;;;;;;;18.02;59.05;95113.69;5069950;28;20194;-45
2023/10/30 08:55:26;;;;;;;11.80;5.90;;;;;;;18.12;58.97;95116.03;5069735;28;20206;-45
2023/10/30 08:57:53;;;;;;;11.97;5.80;;;;;;;18.07;59.12;95093.25;5070176;28;20190;-45
2023/10/30 09:00:21;;;;;;;11.63;6.00;;;;;;;18.30;59.12;95106.97;5069898;28;20201;-45
2023/10/30 09:02:48;;;;;;;13.67;5.73;;;;;;;18.34;59.26;95104.84;5069904;28;20197;-43
2023/10/30 09:05:15;;;;;;;10.10;5.97;;;;;;;18.41;59.49;95105.75;5070037;28;20191;-44
2023/10/30 09:07:43;;;;;;;11.77;6.30;;;;;;;18.44;59.57;95096.84;5069728;28;20204;-43
2023/10/30 09:10:10;;;;;;;12.00;5.83;;;;;;;18.46;59.57;95094.88;5069936;28;20190;-44
2023/10/30 09:12:37;;;;;;;11.23;5.93;;;;;;;18.62;59.88;95099.91;5069487;28;20229;-44
2023/10/30 09:15:07;;;;;;;19.40;6.03;;;;;;;18.64;60.00;95095.34;5069739;28;20233;-44
2023/10/30 09:17:36;;;;;;;13.60;5.87;;;;;;;18.67;60.19;95095.00;5069398;28;20252;-45
2023/10/30 09:20:03;;;;;;;13.47;6.00;;;;;;;18.69;60.56;95089.63;5069677;28;20197;-44
2023/10/30 09:22:32;;;;;;;9.27;5.80;;;;;;;18.69;60.81;95077.50;5069448;28;20273;-44
2023/10/30 09:24:59;;;;;;;14.30;6.83;;;;;;;18.42;60.92;95019.31;5069835;28;20210;-44
2023/10/30 09:27:25;;;;;;;13.80;6.27;;;;;;;18.77;60.90;95061.06;5069099;28;20975;-43
2023/10/30 09:29:53;;;;;;;10.93;5.93;;;;;;;18.82;61.53;95068.28;5069596;28;20197;-44
2023/10/30 09:32:19;;;;;;;11.57;5.97;;;;;;;18.91;61.70;95073.22;5069204;28;20408;-44
2023/10/30 09:34:47;;;;;;;11.03;6.67;;;;;;;18.97;61.54;95071.69;5069120;28;20222;-44
2023/10/30 09:37:14;;;;;;;8.23;5.57;;;;;;;19.09;61.30;95070.25;5068932;28;20653;-44
2023/10/30 09:39:41;;;;;;;10.17;5.80;;;;;;;19.08;61.37;95060.84;5069676;28;20193;-44
2023/10/30 09:42:09;;;;;;;9.90;5.45;;;;;;;19.26;61.17;95066.47;5069345;28;20233;-44
2023/10/30 09:44:35;;;;;;;9.47;4.93;;;;;;;19.30;61.15;95059.16;5069514;28;20216;-45
2023/10/30 09:47:05;;;;;;;17.40;6.10;;;;;;;19.43;60.85;95053.28;5069955;28;20581;-44
2023/10/30 09:49:35;;;;;;;9.43;5.32;;;;;;;19.50;60.52;95049.78;5069301;28;20197;-46
2023/10/30 09:52:05;;;;;;;7.10;5.30;;;;;;;19.60;60.00;95049.47;5069327;28;20648;-44
2023/10/30 09:54:34;;;;;;;9.07;5.22;;;;;;;19.68;59.08;95038.19;5068885;28;20201;-43
2023/10/30 09:57:02;;;;;;;9.27;5.40;;;;;;;19.75;58.87;95034.69;5069247;28;20187;-45
2023/10/30 09:59:31;;;;;;;9.23;5.57;;;;;;;19.85;58.37;95030.97;5068788;28;20190;-45
2023/10/30 10:01:58;;;;;;;12.33;5.30;;;;;;;19.91;58.54;95025.03;5068452;28;20231;-45
2023/10/30 10:04:25;;;;;;;10.85;5.30;;;;;;;19.64;57.94;94966.91;5068672;28;20269;-44
2023/10/30 10:06:53;;;;;;;8.77;5.78;;;;;;;20.07;58.00;95018.75;5069315;28;20182;-45
2023/10/30 10:09:22;;;;;;;8.65;4.82;;;;;;;20.12;58.12;95009.44;5068932;28;20602;-45
2023/10/30 10:11:49;;;;;;;7.85;4.07;;;;;;;20.08;58.05;94987.44;5069017;28;20573;-45
2023/10/30 10:14:15;;;;;;;11.23;4.43;;;;;;;20.21;57.38;95010.09;5068823;28;20190;-45
2023/10/30 10:16:42;;;;;;;7.43;3.97;;;;;;;20.25;57.40;95008.69;5068660;28;20226;-45
2023/10/30 10:19:22;;;;;;;13.65;5.35;;;;;;;20.33;56.95;94999.97;5068919;28;20220;-44
2023/10/30 10:21:49;;;;;;;10.60;4.55;;;;;;;20.39;56.99;94992.22;5068727;28;20189;-45
2023/10/30 10:24:32;;;;;;;12.68;4.47;;;;;;;20.51;55.98;94987.34;5068466;28;20240;-45
2023/10/30 10:27:02;;;;;;;8.10;3.90;;;;;;;20.58;55.46;94995.94;5067423;28;20229;-45
2023/10/30 10:29:29;;;;;;;9.90;4.25;;;;;;;20.69;55.17;94989.41;5068606;28;20658;-44
2023/10/30 10:31:57;;;;;;;6.45;4.15;;;;;;;20.77;55.35;94989.25;5068850;28;20201;-44
2023/10/30 10:34:24;;;;;;;9.68;4.72;;;;;;;20.90;54.71;94986.72;5069107;28;20197;-45
2023/10/30 10:36:51;;;;;;;8.45;4.40;;;;;;;20.93;54.89;94977.72;5067702;28;20198;-46
2023/10/30 10:39:18;;;;;;;10.07;5.20;;;;;;;21.01;54.56;94973.13;5068695;28;20290;-44
2023/10/30 10:41:48;;;;;;;8.57;4.30;;;;;;;21.17;52.97;94984.19;5068777;28;20209;-44
2023/10/30 10:44:15;;;;;;;8.05;3.88;;;;;;;21.15;53.07;94981.78;5068622;28;20194;-45
2023/10/30 10:46:42;;;;;;;7.97;3.88;;;;;;;21.19;53.23;94979.59;5069796;28;20190;-44
2023/10/30 10:49:08;;;;;;;5.53;3.47;;;;;;;21.24;53.25;94979.81;5069118;28;20301;-45
2023/10/30 10:51:37;;;;;;;10.77;3.90;;;;;;;21.28;52.63;94974.00;5069159;28;20237;-45
2023/10/30 10:54:10;;;;;;;8.73;4.35;;;;;;;21.32;52.99;94961.44;5068140;28;20198;-45
2023/10/30 10:56:38;;;;;;;8.48;3.72;;;;;;;21.26;52.95;94942.19;5067990;28;20237;-44
2023/10/30 10:59:13;;;;;;;4.78;2.83;;;;;;;21.44;51.24;94961.66;5068601;28;20194;-45
2023/10/30 11:01:42;;;;;;;6.20;3.15;;;;;;;21.48;51.07;94955.88;5069003;28;20323;-45
2023/10/30 11:04:10;;;;;;;7.28;2.92;;;;;;;21.52;50.54;94962.28;5068850;28;20197;-49
2023/10/30 11:06:42;;;;;;;3.65;2.63;;;;;;;21.60;50.24;94957.88;5069500;28;20709;-47
2023/10/30 11:09:14;;;;;;;6.88;2.78;;;;;;;21.59;49.95;94945.84;5068458;28;20660;-45
2023/10/30 11:11:52;;;;;;;6.00;2.40;;;;;;;21.65;48.90;94950.28;5069236;28;20195;-45
2023/10/30 11:14:33;;;;;;;8.93;3.30;;;;;;;21.66;50.14;94946.66;5072136;28;20182;-46
2023/10/30 11:17:02;;;;;;;3.80;2.58;;;;;;;21.74;50.76;94941.28;5072501;28;20225;-45
2023/10/30 11:19:29;;;;;;;5.03;2.90;;;;;;;21.71;50.11;94918.22;5072132;28;20656;-43
2023/10/30 11:21:56;;;;;;;4.53;3.08;;;;;;;21.91;49.54;94937.25;5072210;28;20216;-46
2023/10/30 11:24:37;;;;;;;8.02;3.25;;;;;;;21.96;50.18;94931.44;5072361;28;20199;-47
2023/10/30 11:27:34;;;;;;;6.82;3.00;;;;;;;22.00;50.89;94922.22;5081342;28;20221;-45
2023/10/30 11:30:06;;;;;;;4.60;3.13;;;;;;;22.02;50.78;94915.00;5075301;28;20190;-50
2023/10/30 11:32:38;;;;;;;9.02;3.00;;;;;;;22.04;50.55;94911.19;5071555;28;20186;-45